Dogtown, Illinois
Current Conditions -  °F | °C
As of 3:15 PM on Tuesday 21 Oct 2014 (Local Time) from KCUL Reporting Station
Scattered Clouds Scattered Clouds  
Wind Chill: 66°   Ceiling: Unl
Heat Index: 66°   Visibility: 10mi
Dew Point: 47°   Wind: 10mph
Humidity: 50%   Direction: 350°N
Pressure: 30.09"   Gusts: NA
Location:  38.0491°N, 88.1124°W
Report Text: KCUL 212015Z AUTO 35009KT 10SM SCT046 19/08 A3009 RMK AO2 T01900083
Loading
Personal Weather Stations






























Interactive Weather Map
Tropical Storm Tracking
New forecast layout! Learn more

10-Day Weather Forecast

Advertisements
Track Severe Weather on mobile